sensor_id;sensor_type;location;lat;lon;timestamp;temperature;humidity
68691;DHT22;55675;49.588;8.640;2022-11-22T00:02:16;9.70;90.80
68691;DHT22;55675;49.588;8.640;2022-11-22T00:04:42;9.80;90.80
68691;DHT22;55675;49.588;8.640;2022-11-22T00:07:07;9.80;90.80
68691;DHT22;55675;49.588;8.640;2022-11-22T00:09:33;9.80;90.90
68691;DHT22;55675;49.588;8.640;2022-11-22T00:11:59;9.90;90.90
68691;DHT22;55675;49.588;8.640;2022-11-22T00:14:24;9.90;90.90
68691;DHT22;55675;49.588;8.640;2022-11-22T00:16:50;10.00;90.90
68691;DHT22;55675;49.588;8.640;2022-11-22T00:19:16;10.00;91.00
68691;DHT22;55675;49.588;8.640;2022-11-22T00:21:41;10.00;91.00
68691;DHT22;55675;49.588;8.640;2022-11-22T00:24:07;10.10;91.00
68691;DHT22;55675;49.588;8.640;2022-11-22T00:26:32;10.00;90.90
68691;DHT22;55675;49.588;8.640;2022-11-22T00:28:58;10.10;91.00
68691;DHT22;55675;49.588;8.640;2022-11-22T00:31:23;10.00;91.30
68691;DHT22;55675;49.588;8.640;2022-11-22T00:33:49;10.10;90.90
68691;DHT22;55675;49.588;8.640;2022-11-22T00:36:14;10.10;91.00
68691;DHT22;55675;49.588;8.640;2022-11-22T00:38:42;10.00;91.20
68691;DHT22;55675;49.588;8.640;2022-11-22T00:41:08;10.00;91.40
68691;DHT22;55675;49.588;8.640;2022-11-22T00:43:33;10.00;91.40
68691;DHT22;55675;49.588;8.640;2022-11-22T00:45:59;10.00;91.60
68691;DHT22;55675;49.588;8.640;2022-11-22T00:48:25;10.00;91.70
68691;DHT22;55675;49.588;8.640;2022-11-22T00:50:51;10.00;91.90
68691;DHT22;55675;49.588;8.640;2022-11-22T00:53:16;10.10;91.90
68691;DHT22;55675;49.588;8.640;2022-11-22T00:55:43;10.10;91.80
68691;DHT22;55675;49.588;8.640;2022-11-22T00:58:09;10.10;91.70
68691;DHT22;55675;49.588;8.640;2022-11-22T01:00:35;10.20;91.70
68691;DHT22;55675;49.588;8.640;2022-11-22T01:03:00;10.10;91.70
68691;DHT22;55675;49.588;8.640;2022-11-22T01:05:26;10.10;91.70
68691;DHT22;55675;49.588;8.640;2022-11-22T01:07:52;10.10;91.90
68691;DHT22;55675;49.588;8.640;2022-11-22T01:16:15;10.00;92.20
68691;DHT22;55675;49.588;8.640;2022-11-22T01:18:41;10.00;92.40
68691;DHT22;55675;49.588;8.640;2022-11-22T01:21:07;10.00;92.60
68691;DHT22;55675;49.588;8.640;2022-11-22T01:23:33;9.90;92.80
68691;DHT22;55675;49.588;8.640;2022-11-22T01:26:00;9.90;92.90
68691;DHT22;55675;49.588;8.640;2022-11-22T01:28:26;9.90;93.20
68691;DHT22;55675;49.588;8.640;2022-11-22T01:30:52;9.90;93.50
68691;DHT22;55675;49.588;8.640;2022-11-22T01:33:19;9.90;93.60
68691;DHT22;55675;49.588;8.640;2022-11-22T01:35:45;9.90;93.70
68691;DHT22;55675;49.588;8.640;2022-11-22T01:38:11;9.80;93.90
68691;DHT22;55675;49.588;8.640;2022-11-22T01:40:36;9.80;94.00
68691;DHT22;55675;49.588;8.640;2022-11-22T01:43:03;9.80;94.10
68691;DHT22;55675;49.588;8.640;2022-11-22T01:48:16;9.80;94.20
68691;DHT22;55675;49.588;8.640;2022-11-22T01:50:47;9.80;94.30
68691;DHT22;55675;49.588;8.640;2022-11-22T01:53:16;9.80;94.50
68691;DHT22;55675;49.588;8.640;2022-11-22T01:55:44;9.80;94.60
68691;DHT22;55675;49.588;8.640;2022-11-22T01:58:12;9.80;94.60
68691;DHT22;55675;49.588;8.640;2022-11-22T02:00:39;9.80;94.70
68691;DHT22;55675;49.588;8.640;2022-11-22T02:03:07;9.80;94.70
68691;DHT22;55675;49.588;8.640;2022-11-22T02:05:34;9.80;94.80
68691;DHT22;55675;49.588;8.640;2022-11-22T02:08:22;9.80;94.80
68691;DHT22;55675;49.588;8.640;2022-11-22T02:10:51;9.80;94.70
68691;DHT22;55675;49.588;8.640;2022-11-22T02:13:19;9.80;94.70
68691;DHT22;55675;49.588;8.640;2022-11-22T02:15:46;9.80;94.80
68691;DHT22;55675;49.588;8.640;2022-11-22T02:18:11;9.80;94.80
68691;DHT22;55675;49.588;8.640;2022-11-22T02:20:37;9.80;94.80
68691;DHT22;55675;49.588;8.640;2022-11-22T02:23:13;9.80;94.90
68691;DHT22;55675;49.588;8.640;2022-11-22T02:28:08;9.80;94.90
68691;DHT22;55675;49.588;8.640;2022-11-22T02:30:35;9.70;95.20
68691;DHT22;55675;49.588;8.640;2022-11-22T02:33:01;9.80;95.00
68691;DHT22;55675;49.588;8.640;2022-11-22T02:35:27;9.80;95.00
68691;DHT22;55675;49.588;8.640;2022-11-22T02:38:00;9.80;95.00
68691;DHT22;55675;49.588;8.640;2022-11-22T02:40:30;9.80;95.00
68691;DHT22;55675;49.588;8.640;2022-11-22T02:43:10;9.90;94.90
68691;DHT22;55675;49.588;8.640;2022-11-22T02:45:37;9.90;94.80
68691;DHT22;55675;49.588;8.640;2022-11-22T02:48:04;9.90;94.80
68691;DHT22;55675;49.588;8.640;2022-11-22T02:50:30;9.90;94.70
68691;DHT22;55675;49.588;8.640;2022-11-22T02:52:56;10.00;94.80
68691;DHT22;55675;49.588;8.640;2022-11-22T02:55:21;10.00;94.90
68691;DHT22;55675;49.588;8.640;2022-11-22T02:57:47;9.90;94.90
68691;DHT22;55675;49.588;8.640;2022-11-22T03:00:12;9.90;94.90
68691;DHT22;55675;49.588;8.640;2022-11-22T03:02:38;9.90;94.90
68691;DHT22;55675;49.588;8.640;2022-11-22T03:05:04;9.90;94.90
68691;DHT22;55675;49.588;8.640;2022-11-22T03:07:29;9.90;95.00
68691;DHT22;55675;49.588;8.640;2022-11-22T03:09:55;9.90;95.00
68691;DHT22;55675;49.588;8.640;2022-11-22T03:12:20;9.90;95.10
68691;DHT22;55675;49.588;8.640;2022-11-22T03:14:46;9.90;95.10
68691;DHT22;55675;49.588;8.640;2022-11-22T03:17:11;10.00;95.10
68691;DHT22;55675;49.588;8.640;2022-11-22T03:19:38;10.00;95.10
68691;DHT22;55675;49.588;8.640;2022-11-22T03:22:04;10.00;95.00
68691;DHT22;55675;49.588;8.640;2022-11-22T03:24:29;10.00;95.00
68691;DHT22;55675;49.588;8.640;2022-11-22T03:26:55;10.00;94.90
68691;DHT22;55675;49.588;8.640;2022-11-22T03:29:20;10.00;95.00
68691;DHT22;55675;49.588;8.640;2022-11-22T03:31:46;10.00;95.00
68691;DHT22;55675;49.588;8.640;2022-11-22T03:34:12;10.00;95.10
68691;DHT22;55675;49.588;8.640;2022-11-22T03:36:37;9.90;95.20
68691;DHT22;55675;49.588;8.640;2022-11-22T03:39:03;9.90;95.20
68691;DHT22;55675;49.588;8.640;2022-11-22T03:41:28;9.90;95.30
68691;DHT22;55675;49.588;8.640;2022-11-22T03:43:54;10.00;95.20
68691;DHT22;55675;49.588;8.640;2022-11-22T03:46:19;10.00;95.10
68691;DHT22;55675;49.588;8.640;2022-11-22T03:48:45;9.90;95.10
68691;DHT22;55675;49.588;8.640;2022-11-22T03:51:11;9.90;95.10
68691;DHT22;55675;49.588;8.640;2022-11-22T03:53:36;9.80;95.20
68691;DHT22;55675;49.588;8.640;2022-11-22T03:56:02;9.80;95.30
68691;DHT22;55675;49.588;8.640;2022-11-22T03:58:28;9.70;95.30
68691;DHT22;55675;49.588;8.640;2022-11-22T04:00:55;9.80;95.40
68691;DHT22;55675;49.588;8.640;2022-11-22T04:03:20;9.70;95.40
68691;DHT22;55675;49.588;8.640;2022-11-22T04:05:46;9.70;95.50
68691;DHT22;55675;49.588;8.640;2022-11-22T04:08:12;9.70;95.60
68691;DHT22;55675;49.588;8.640;2022-11-22T04:10:38;9.70;95.70
68691;DHT22;55675;49.588;8.640;2022-11-22T04:13:03;9.70;95.70
68691;DHT22;55675;49.588;8.640;2022-11-22T04:15:29;9.70;95.70
68691;DHT22;55675;49.588;8.640;2022-11-22T04:17:54;9.80;95.70
68691;DHT22;55675;49.588;8.640;2022-11-22T04:23:13;9.80;95.60
68691;DHT22;55675;49.588;8.640;2022-11-22T04:25:42;9.80;95.60
68691;DHT22;55675;49.588;8.640;2022-11-22T04:28:09;9.70;95.60
68691;DHT22;55675;49.588;8.640;2022-11-22T04:30:36;9.60;95.80
68691;DHT22;55675;49.588;8.640;2022-11-22T04:33:21;9.60;95.90
68691;DHT22;55675;49.588;8.640;2022-11-22T04:35:47;9.60;96.00
68691;DHT22;55675;49.588;8.640;2022-11-22T04:38:14;9.60;96.00
68691;DHT22;55675;49.588;8.640;2022-11-22T04:40:40;9.60;96.00
68691;DHT22;55675;49.588;8.640;2022-11-22T04:43:06;9.60;96.10
68691;DHT22;55675;49.588;8.640;2022-11-22T04:45:51;9.60;96.10
68691;DHT22;55675;49.588;8.640;2022-11-22T04:48:17;9.50;96.10
68691;DHT22;55675;49.588;8.640;2022-11-22T04:50:44;9.50;96.20
68691;DHT22;55675;49.588;8.640;2022-11-22T04:53:29;9.40;96.30
68691;DHT22;55675;49.588;8.640;2022-11-22T04:55:55;9.40;96.40
68691;DHT22;55675;49.588;8.640;2022-11-22T04:58:21;9.40;96.50
68691;DHT22;55675;49.588;8.640;2022-11-22T05:00:47;9.40;96.60
68691;DHT22;55675;49.588;8.640;2022-11-22T05:03:13;9.40;96.60
68691;DHT22;55675;49.588;8.640;2022-11-22T05:05:40;9.50;96.60
68691;DHT22;55675;49.588;8.640;2022-11-22T05:08:06;9.50;96.50
68691;DHT22;55675;49.588;8.640;2022-11-22T05:10:33;9.50;96.40
68691;DHT22;55675;49.588;8.640;2022-11-22T05:13:19;9.40;96.40
68691;DHT22;55675;49.588;8.640;2022-11-22T05:15:45;9.30;96.40
68691;DHT22;55675;49.588;8.640;2022-11-22T05:18:11;9.20;96.50
68691;DHT22;55675;49.588;8.640;2022-11-22T05:20:36;9.10;96.50
68691;DHT22;55675;49.588;8.640;2022-11-22T05:23:02;9.00;96.50
68691;DHT22;55675;49.588;8.640;2022-11-22T05:25:46;9.00;96.60
68691;DHT22;55675;49.588;8.640;2022-11-22T05:28:12;8.90;96.50
68691;DHT22;55675;49.588;8.640;2022-11-22T05:30:38;8.90;96.50
68691;DHT22;55675;49.588;8.640;2022-11-22T05:33:04;8.80;96.40
68691;DHT22;55675;49.588;8.640;2022-11-22T05:35:29;8.70;96.40
68691;DHT22;55675;49.588;8.640;2022-11-22T05:37:57;8.70;96.40
68691;DHT22;55675;49.588;8.640;2022-11-22T05:40:24;8.70;96.50
68691;DHT22;55675;49.588;8.640;2022-11-22T05:42:49;8.60;96.50
68691;DHT22;55675;49.588;8.640;2022-11-22T05:45:15;8.60;96.60
68691;DHT22;55675;49.588;8.640;2022-11-22T05:47:41;8.70;96.70
68691;DHT22;55675;49.588;8.640;2022-11-22T05:50:07;8.70;96.60
68691;DHT22;55675;49.588;8.640;2022-11-22T05:52:33;8.80;96.60
68691;DHT22;55675;49.588;8.640;2022-11-22T05:54:58;8.80;96.50
68691;DHT22;55675;49.588;8.640;2022-11-22T05:57:24;8.90;96.60
68691;DHT22;55675;49.588;8.640;2022-11-22T05:59:50;9.00;96.80
68691;DHT22;55675;49.588;8.640;2022-11-22T06:02:16;9.00;96.40
68691;DHT22;55675;49.588;8.640;2022-11-22T06:04:41;9.10;96.20
68691;DHT22;55675;49.588;8.640;2022-11-22T06:07:07;9.20;96.10
68691;DHT22;55675;49.588;8.640;2022-11-22T06:09:32;9.30;96.00
68691;DHT22;55675;49.588;8.640;2022-11-22T06:11:58;9.30;95.90
68691;DHT22;55675;49.588;8.640;2022-11-22T06:14:23;9.40;95.70
68691;DHT22;55675;49.588;8.640;2022-11-22T06:16:50;9.50;95.60
68691;DHT22;55675;49.588;8.640;2022-11-22T06:19:15;9.50;95.80
68691;DHT22;55675;49.588;8.640;2022-11-22T06:21:41;9.50;95.50
68691;DHT22;55675;49.588;8.640;2022-11-22T06:24:07;9.60;95.40
68691;DHT22;55675;49.588;8.640;2022-11-22T06:26:32;9.70;95.20
68691;DHT22;55675;49.588;8.640;2022-11-22T06:28:58;9.70;95.10
68691;DHT22;55675;49.588;8.640;2022-11-22T06:31:25;9.70;94.90
68691;DHT22;55675;49.588;8.640;2022-11-22T06:33:56;9.70;94.90
68691;DHT22;55675;49.588;8.640;2022-11-22T06:36:25;9.80;94.70
68691;DHT22;55675;49.588;8.640;2022-11-22T06:38:51;9.70;94.50
68691;DHT22;55675;49.588;8.640;2022-11-22T06:41:20;9.80;94.20
68691;DHT22;55675;49.588;8.640;2022-11-22T06:43:47;9.80;94.20
68691;DHT22;55675;49.588;8.640;2022-11-22T06:46:14;9.70;94.10
68691;DHT22;55675;49.588;8.640;2022-11-22T06:48:41;9.70;94.20
68691;DHT22;55675;49.588;8.640;2022-11-22T06:51:18;9.60;94.00
68691;DHT22;55675;49.588;8.640;2022-11-22T06:53:45;9.50;94.00
68691;DHT22;55675;49.588;8.640;2022-11-22T06:56:13;9.40;94.00
68691;DHT22;55675;49.588;8.640;2022-11-22T06:58:40;9.40;94.00
68691;DHT22;55675;49.588;8.640;2022-11-22T07:03:37;9.40;94.00
68691;DHT22;55675;49.588;8.640;2022-11-22T07:06:04;9.40;93.90
68691;DHT22;55675;49.588;8.640;2022-11-22T07:08:30;9.40;94.10
68691;DHT22;55675;49.588;8.640;2022-11-22T07:11:04;9.40;94.10
68691;DHT22;55675;49.588;8.640;2022-11-22T07:13:30;9.40;94.10
68691;DHT22;55675;49.588;8.640;2022-11-22T07:15:57;9.40;94.00
68691;DHT22;55675;49.588;8.640;2022-11-22T07:18:25;9.40;94.00
68691;DHT22;55675;49.588;8.640;2022-11-22T07:20:51;9.40;93.90
68691;DHT22;55675;49.588;8.640;2022-11-22T07:23:16;9.50;94.00
68691;DHT22;55675;49.588;8.640;2022-11-22T07:25:46;9.50;94.00
68691;DHT22;55675;49.588;8.640;2022-11-22T07:28:15;9.50;94.20
68691;DHT22;55675;49.588;8.640;2022-11-22T07:30:41;9.50;93.80
68691;DHT22;55675;49.588;8.640;2022-11-22T07:33:07;9.50;93.80
68691;DHT22;55675;49.588;8.640;2022-11-22T07:35:34;9.50;93.80
68691;DHT22;55675;49.588;8.640;2022-11-22T07:38:00;9.40;93.70
68691;DHT22;55675;49.588;8.640;2022-11-22T07:40:25;9.40;93.60
68691;DHT22;55675;49.588;8.640;2022-11-22T07:42:51;9.30;93.50
68691;DHT22;55675;49.588;8.640;2022-11-22T07:45:16;9.40;93.30
68691;DHT22;55675;49.588;8.640;2022-11-22T07:47:42;9.30;93.30
68691;DHT22;55675;49.588;8.640;2022-11-22T07:50:08;9.30;93.40
68691;DHT22;55675;49.588;8.640;2022-11-22T07:52:33;9.30;93.30
68691;DHT22;55675;49.588;8.640;2022-11-22T07:54:59;9.40;93.40
68691;DHT22;55675;49.588;8.640;2022-11-22T07:57:25;9.40;93.20
68691;DHT22;55675;49.588;8.640;2022-11-22T07:59:50;9.50;93.10
68691;DHT22;55675;49.588;8.640;2022-11-22T08:02:16;9.50;93.20
68691;DHT22;55675;49.588;8.640;2022-11-22T08:04:41;9.50;93.20
68691;DHT22;55675;49.588;8.640;2022-11-22T08:07:07;9.60;93.30
68691;DHT22;55675;49.588;8.640;2022-11-22T08:09:34;9.60;93.40
68691;DHT22;55675;49.588;8.640;2022-11-22T08:11:59;9.60;93.40
68691;DHT22;55675;49.588;8.640;2022-11-22T08:14:25;9.70;93.20
68691;DHT22;55675;49.588;8.640;2022-11-22T08:16:51;9.70;93.10
68691;DHT22;55675;49.588;8.640;2022-11-22T08:19:16;9.70;92.90
68691;DHT22;55675;49.588;8.640;2022-11-22T08:21:43;9.80;93.00
68691;DHT22;55675;49.588;8.640;2022-11-22T08:24:08;9.80;93.00
68691;DHT22;55675;49.588;8.640;2022-11-22T08:26:34;9.90;92.80
68691;DHT22;55675;49.588;8.640;2022-11-22T08:29:03;9.90;92.70
68691;DHT22;55675;49.588;8.640;2022-11-22T08:31:28;10.00;92.40
68691;DHT22;55675;49.588;8.640;2022-11-22T08:33:54;10.00;92.30
68691;DHT22;55675;49.588;8.640;2022-11-22T08:36:20;10.00;92.00
68691;DHT22;55675;49.588;8.640;2022-11-22T08:38:45;10.10;92.00
68691;DHT22;55675;49.588;8.640;2022-11-22T08:41:11;10.10;91.90
68691;DHT22;55675;49.588;8.640;2022-11-22T08:43:37;10.10;91.60
68691;DHT22;55675;49.588;8.640;2022-11-22T08:46:02;10.20;91.40
68691;DHT22;55675;49.588;8.640;2022-11-22T08:48:29;10.20;91.10
68691;DHT22;55675;49.588;8.640;2022-11-22T08:50:58;10.30;91.00
68691;DHT22;55675;49.588;8.640;2022-11-22T08:53:24;10.30;90.90
68691;DHT22;55675;49.588;8.640;2022-11-22T08:55:50;10.40;90.60
68691;DHT22;55675;49.588;8.640;2022-11-22T08:58:16;10.40;90.50
68691;DHT22;55675;49.588;8.640;2022-11-22T09:00:42;10.50;90.30
68691;DHT22;55675;49.588;8.640;2022-11-22T09:03:08;10.50;90.10
68691;DHT22;55675;49.588;8.640;2022-11-22T09:05:34;10.60;90.00
68691;DHT22;55675;49.588;8.640;2022-11-22T09:07:59;10.60;89.40
68691;DHT22;55675;49.588;8.640;2022-11-22T09:10:25;10.60;89.00
68691;DHT22;55675;49.588;8.640;2022-11-22T09:12:51;10.70;89.30
68691;DHT22;55675;49.588;8.640;2022-11-22T09:15:17;10.80;88.50
68691;DHT22;55675;49.588;8.640;2022-11-22T09:17:43;10.80;88.20
68691;DHT22;55675;49.588;8.640;2022-11-22T09:20:09;10.90;88.00
68691;DHT22;55675;49.588;8.640;2022-11-22T09:22:36;10.90;87.10
68691;DHT22;55675;49.588;8.640;2022-11-22T09:25:03;10.90;86.70
68691;DHT22;55675;49.588;8.640;2022-11-22T09:27:28;11.00;86.70
68691;DHT22;55675;49.588;8.640;2022-11-22T09:29:54;11.00;86.90
68691;DHT22;55675;49.588;8.640;2022-11-22T09:32:19;11.00;86.00
68691;DHT22;55675;49.588;8.640;2022-11-22T09:34:45;11.00;85.60
68691;DHT22;55675;49.588;8.640;2022-11-22T09:37:10;11.00;86.00
68691;DHT22;55675;49.588;8.640;2022-11-22T09:39:36;11.00;86.60
68691;DHT22;55675;49.588;8.640;2022-11-22T09:42:28;11.00;86.40
68691;DHT22;55675;49.588;8.640;2022-11-22T09:51:01;11.20;84.30
68691;DHT22;55675;49.588;8.640;2022-11-22T09:54:08;11.20;83.40
68691;DHT22;55675;49.588;8.640;2022-11-22T09:56:26;11.20;83.60
68691;DHT22;55675;49.588;8.640;2022-11-22T09:59:12;11.20;84.00
68691;DHT22;55675;49.588;8.640;2022-11-22T10:01:44;11.30;84.10
68691;DHT22;55675;49.588;8.640;2022-11-22T10:04:27;11.30;83.10
68691;DHT22;55675;49.588;8.640;2022-11-22T10:06:59;11.30;82.70
68691;DHT22;55675;49.588;8.640;2022-11-22T10:09:31;11.30;82.20
68691;DHT22;55675;49.588;8.640;2022-11-22T10:12:32;11.30;82.00
68691;DHT22;55675;49.588;8.640;2022-11-22T10:17:53;11.40;81.20
68691;DHT22;55675;49.588;8.640;2022-11-22T10:20:28;11.40;79.70
68691;DHT22;55675;49.588;8.640;2022-11-22T10:22:54;11.40;80.10
68691;DHT22;55675;49.588;8.640;2022-11-22T10:25:29;11.40;78.70
68691;DHT22;55675;49.588;8.640;2022-11-22T10:28:08;11.40;80.10
68691;DHT22;55675;49.588;8.640;2022-11-22T10:30:40;11.30;80.20
68691;DHT22;55675;49.588;8.640;2022-11-22T10:33:46;11.30;79.50
68691;DHT22;55675;49.588;8.640;2022-11-22T10:46:59;11.40;79.30
68691;DHT22;55675;49.588;8.640;2022-11-22T10:49:40;11.40;78.50
68691;DHT22;55675;49.588;8.640;2022-11-22T10:52:18;11.40;79.40
68691;DHT22;55675;49.588;8.640;2022-11-22T10:54:50;11.50;79.30
68691;DHT22;55675;49.588;8.640;2022-11-22T10:57:37;11.60;80.00
68691;DHT22;55675;49.588;8.640;2022-11-22T11:00:20;11.70;80.00
68691;DHT22;55675;49.588;8.640;2022-11-22T11:05:47;11.80;79.40
68691;DHT22;55675;49.588;8.640;2022-11-22T11:08:28;11.80;78.70
68691;DHT22;55675;49.588;8.640;2022-11-22T11:10:59;11.80;78.10
68691;DHT22;55675;49.588;8.640;2022-11-22T11:13:28;11.80;77.90
68691;DHT22;55675;49.588;8.640;2022-11-22T11:15:57;11.80;78.30
68691;DHT22;55675;49.588;8.640;2022-11-22T11:18:31;11.90;78.40
68691;DHT22;55675;49.588;8.640;2022-11-22T11:21:01;12.00;77.50
68691;DHT22;55675;49.588;8.640;2022-11-22T11:23:26;12.00;77.50
68691;DHT22;55675;49.588;8.640;2022-11-22T11:25:52;12.10;76.60
68691;DHT22;55675;49.588;8.640;2022-11-22T11:28:27;12.20;76.00
68691;DHT22;55675;49.588;8.640;2022-11-22T11:31:07;12.20;76.40
68691;DHT22;55675;49.588;8.640;2022-11-22T11:33:35;12.20;75.20
68691;DHT22;55675;49.588;8.640;2022-11-22T11:41:27;12.20;74.30
68691;DHT22;55675;49.588;8.640;2022-11-22T11:43:55;12.20;75.50
68691;DHT22;55675;49.588;8.640;2022-11-22T11:46:23;12.30;74.80
68691;DHT22;55675;49.588;8.640;2022-11-22T11:48:50;12.40;75.60
68691;DHT22;55675;49.588;8.640;2022-11-22T11:54:04;12.40;72.80
68691;DHT22;55675;49.588;8.640;2022-11-22T12:02:20;12.50;73.10
68691;DHT22;55675;49.588;8.640;2022-11-22T12:05:22;12.50;73.50
68691;DHT22;55675;49.588;8.640;2022-11-22T12:07:49;12.50;73.00
68691;DHT22;55675;49.588;8.640;2022-11-22T12:10:30;12.50;71.50
68691;DHT22;55675;49.588;8.640;2022-11-22T12:16:19;12.50;71.90
68691;DHT22;55675;49.588;8.640;2022-11-22T12:19:11;12.60;72.00
68691;DHT22;55675;49.588;8.640;2022-11-22T12:21:56;12.60;73.30
68691;DHT22;55675;49.588;8.640;2022-11-22T12:24:36;12.70;71.70
68691;DHT22;55675;49.588;8.640;2022-11-22T12:27:07;12.70;71.80
68691;DHT22;55675;49.588;8.640;2022-11-22T12:29:34;12.60;71.30
68691;DHT22;55675;49.588;8.640;2022-11-22T12:32:24;12.60;70.80
68691;DHT22;55675;49.588;8.640;2022-11-22T12:35:04;12.60;71.20
68691;DHT22;55675;49.588;8.640;2022-11-22T12:37:47;12.50;69.90
68691;DHT22;55675;49.588;8.640;2022-11-22T12:43:22;12.60;70.40
68691;DHT22;55675;49.588;8.640;2022-11-22T12:45:55;12.60;70.00
68691;DHT22;55675;49.588;8.640;2022-11-22T12:48:37;12.60;70.00
68691;DHT22;55675;49.588;8.640;2022-11-22T12:53:51;12.70;69.00
68691;DHT22;55675;49.588;8.640;2022-11-22T12:56:44;12.60;67.10
68691;DHT22;55675;49.588;8.640;2022-11-22T12:59:27;12.60;67.70
68691;DHT22;55675;49.588;8.640;2022-11-22T13:02:17;12.60;68.60
68691;DHT22;55675;49.588;8.640;2022-11-22T13:04:53;12.60;68.10
68691;DHT22;55675;49.588;8.640;2022-11-22T13:07:44;12.50;68.10
68691;DHT22;55675;49.588;8.640;2022-11-22T13:10:27;12.50;68.30
68691;DHT22;55675;49.588;8.640;2022-11-22T13:12:56;12.50;69.60
68691;DHT22;55675;49.588;8.640;2022-11-22T13:15:32;12.50;70.00
68691;DHT22;55675;49.588;8.640;2022-11-22T13:17:59;12.50;69.10
68691;DHT22;55675;49.588;8.640;2022-11-22T13:20:36;12.50;69.60
68691;DHT22;55675;49.588;8.640;2022-11-22T13:23:14;12.50;68.70
68691;DHT22;55675;49.588;8.640;2022-11-22T13:28:20;12.50;69.50
68691;DHT22;55675;49.588;8.640;2022-11-22T13:34:20;12.60;68.70
68691;DHT22;55675;49.588;8.640;2022-11-22T13:38:59;12.40;67.60
68691;DHT22;55675;49.588;8.640;2022-11-22T13:44:23;12.30;68.80
68691;DHT22;55675;49.588;8.640;2022-11-22T13:46:56;12.20;69.10
68691;DHT22;55675;49.588;8.640;2022-11-22T13:49:42;12.10;69.40
68691;DHT22;55675;49.588;8.640;2022-11-22T13:57:25;11.90;69.00
68691;DHT22;55675;49.588;8.640;2022-11-22T14:02:36;11.80;70.30
68691;DHT22;55675;49.588;8.640;2022-11-22T14:05:02;11.70;70.20
68691;DHT22;55675;49.588;8.640;2022-11-22T14:07:33;11.60;70.40
68691;DHT22;55675;49.588;8.640;2022-11-22T14:10:00;11.50;70.70
68691;DHT22;55675;49.588;8.640;2022-11-22T14:26:24;11.40;73.00
68691;DHT22;55675;49.588;8.640;2022-11-22T14:29:32;11.40;73.30
68691;DHT22;55675;49.588;8.640;2022-11-22T14:32:17;11.40;73.00
68691;DHT22;55675;49.588;8.640;2022-11-22T14:47:44;11.30;75.20
68691;DHT22;55675;49.588;8.640;2022-11-22T14:50:37;11.30;75.50
68691;DHT22;55675;49.588;8.640;2022-11-22T14:53:31;11.30;75.90
68691;DHT22;55675;49.588;8.640;2022-11-22T14:56:10;11.20;75.60
68691;DHT22;55675;49.588;8.640;2022-11-22T14:58:45;11.20;76.10
68691;DHT22;55675;49.588;8.640;2022-11-22T15:15:27;10.90;76.40
68691;DHT22;55675;49.588;8.640;2022-11-22T15:17:56;10.90;76.80
68691;DHT22;55675;49.588;8.640;2022-11-22T15:20:39;10.80;76.90
68691;DHT22;55675;49.588;8.640;2022-11-22T15:23:11;10.70;77.80
68691;DHT22;55675;49.588;8.640;2022-11-22T15:25:37;10.60;77.70
68691;DHT22;55675;49.588;8.640;2022-11-22T15:28:02;10.60;78.30
68691;DHT22;55675;49.588;8.640;2022-11-22T15:30:28;10.60;78.50
68691;DHT22;55675;49.588;8.640;2022-11-22T15:32:54;10.50;79.20
68691;DHT22;55675;49.588;8.640;2022-11-22T15:35:33;10.50;79.40
68691;DHT22;55675;49.588;8.640;2022-11-22T15:38:05;10.50;79.60
68691;DHT22;55675;49.588;8.640;2022-11-22T15:40:36;10.50;80.00
68691;DHT22;55675;49.588;8.640;2022-11-22T15:43:03;10.40;80.90
68691;DHT22;55675;49.588;8.640;2022-11-22T15:45:33;10.40;80.40
68691;DHT22;55675;49.588;8.640;2022-11-22T15:48:09;10.40;81.00
68691;DHT22;55675;49.588;8.640;2022-11-22T15:50:36;10.50;81.40
68691;DHT22;55675;49.588;8.640;2022-11-22T15:53:22;10.40;81.80
68691;DHT22;55675;49.588;8.640;2022-11-22T15:56:06;10.30;82.10
68691;DHT22;55675;49.588;8.640;2022-11-22T15:58:37;10.40;82.30
68691;DHT22;55675;49.588;8.640;2022-11-22T16:01:04;10.30;82.50
68691;DHT22;55675;49.588;8.640;2022-11-22T16:03:37;10.30;82.80
68691;DHT22;55675;49.588;8.640;2022-11-22T16:06:09;10.30;83.40
68691;DHT22;55675;49.588;8.640;2022-11-22T16:08:38;10.30;83.70
68691;DHT22;55675;49.588;8.640;2022-11-22T16:11:04;10.30;84.50
68691;DHT22;55675;49.588;8.640;2022-11-22T16:13:34;10.30;84.60
68691;DHT22;55675;49.588;8.640;2022-11-22T16:18:35;10.30;85.50
68691;DHT22;55675;49.588;8.640;2022-11-22T16:21:03;10.30;86.20
68691;DHT22;55675;49.588;8.640;2022-11-22T16:23:30;10.20;86.80
68691;DHT22;55675;49.588;8.640;2022-11-22T16:26:18;10.20;87.90
68691;DHT22;55675;49.588;8.640;2022-11-22T16:28:52;10.10;89.00
68691;DHT22;55675;49.588;8.640;2022-11-22T16:31:23;10.10;89.30
68691;DHT22;55675;49.588;8.640;2022-11-22T16:33:50;10.00;89.80
68691;DHT22;55675;49.588;8.640;2022-11-22T16:36:17;10.00;90.00
68691;DHT22;55675;49.588;8.640;2022-11-22T16:38:43;10.00;90.20
68691;DHT22;55675;49.588;8.640;2022-11-22T16:41:28;10.00;90.50
68691;DHT22;55675;49.588;8.640;2022-11-22T16:44:20;9.90;90.60
68691;DHT22;55675;49.588;8.640;2022-11-22T16:46:46;10.00;90.80
68691;DHT22;55675;49.588;8.640;2022-11-22T16:49:20;9.90;90.90
68691;DHT22;55675;49.588;8.640;2022-11-22T16:51:50;9.90;91.10
68691;DHT22;55675;49.588;8.640;2022-11-22T16:54:17;9.90;91.40
68691;DHT22;55675;49.588;8.640;2022-11-22T16:56:44;9.90;91.70
68691;DHT22;55675;49.588;8.640;2022-11-22T16:59:11;9.90;91.90
68691;DHT22;55675;49.588;8.640;2022-11-22T17:01:42;9.80;92.10
68691;DHT22;55675;49.588;8.640;2022-11-22T17:04:20;9.80;92.20
68691;DHT22;55675;49.588;8.640;2022-11-22T17:06:46;9.80;92.30
68691;DHT22;55675;49.588;8.640;2022-11-22T17:09:12;9.80;92.40
68691;DHT22;55675;49.588;8.640;2022-11-22T17:11:37;9.80;92.50
68691;DHT22;55675;49.588;8.640;2022-11-22T17:14:03;9.80;92.70
68691;DHT22;55675;49.588;8.640;2022-11-22T17:16:28;9.80;93.00
68691;DHT22;55675;49.588;8.640;2022-11-22T17:18:54;9.80;93.00
68691;DHT22;55675;49.588;8.640;2022-11-22T17:21:28;9.80;93.10
68691;DHT22;55675;49.588;8.640;2022-11-22T17:23:58;9.80;93.20
68691;DHT22;55675;49.588;8.640;2022-11-22T17:26:24;9.80;93.40
68691;DHT22;55675;49.588;8.640;2022-11-22T17:28:50;9.80;93.50
68691;DHT22;55675;49.588;8.640;2022-11-22T17:31:17;9.70;93.80
68691;DHT22;55675;49.588;8.640;2022-11-22T17:33:47;9.70;94.00
68691;DHT22;55675;49.588;8.640;2022-11-22T17:38:44;9.60;94.40
68691;DHT22;55675;49.588;8.640;2022-11-22T17:41:10;9.60;94.50
68691;DHT22;55675;49.588;8.640;2022-11-22T17:43:38;9.60;94.60
68691;DHT22;55675;49.588;8.640;2022-11-22T17:46:04;9.60;94.60
68691;DHT22;55675;49.588;8.640;2022-11-22T17:48:29;9.60;94.70
68691;DHT22;55675;49.588;8.640;2022-11-22T17:50:55;9.70;94.70
68691;DHT22;55675;49.588;8.640;2022-11-22T17:53:20;9.70;94.90
68691;DHT22;55675;49.588;8.640;2022-11-22T17:55:47;9.60;94.90
68691;DHT22;55675;49.588;8.640;2022-11-22T17:58:12;9.70;95.00
68691;DHT22;55675;49.588;8.640;2022-11-22T18:00:38;9.60;95.00